createdAt,value
2018-12-25T00:01:22.073Z,3.33
2018-12-25T00:03:52.339Z,3.60
2018-12-25T00:09:25.452Z,3.50
2018-12-25T00:12:14.308Z,2.57
2018-12-25T00:14:44.407Z,3.37
2018-12-25T00:19:56.894Z,2.90
2018-12-25T00:22:46.899Z,3.03
2018-12-25T00:25:38.018Z,2.43
2018-12-25T00:31:14.523Z,3.47
2018-12-25T00:33:44.082Z,3.17
2018-12-25T00:36:13.877Z,3.00
2018-12-25T00:38:43.712Z,2.60
2018-12-25T00:41:25.547Z,2.47
2018-12-25T00:43:55.185Z,2.97
2018-12-25T00:46:24.991Z,2.57
2018-12-25T00:48:54.878Z,3.00
2018-12-25T00:51:43.915Z,2.53
2018-12-25T00:54:13.732Z,2.80
2018-12-25T00:56:43.322Z,2.90
2018-12-25T00:59:13.500Z,2.50
2018-12-25T01:01:43.408Z,2.30
2018-12-25T01:04:12.950Z,2.77
2018-12-25T01:06:43.218Z,2.75
2018-12-25T01:09:12.706Z,2.08
2018-12-25T01:11:42.230Z,1.92
2018-12-25T01:14:11.759Z,1.73
2018-12-25T01:17:00.776Z,1.73
2018-12-25T01:19:30.313Z,1.83
2018-12-25T01:21:59.898Z,1.77
2018-12-25T01:24:29.415Z,2.17
2018-12-25T01:26:59.863Z,1.67
2018-12-25T01:29:29.380Z,1.60
2018-12-25T01:31:58.939Z,1.80
2018-12-25T01:34:29.121Z,1.87
2018-12-25T01:39:58.808Z,2.00
2018-12-25T01:42:48.673Z,3.40
2018-12-25T01:45:18.594Z,1.42
2018-12-25T01:47:48.444Z,1.87
2018-12-25T01:50:18.660Z,1.43
2018-12-25T01:52:48.680Z,1.40
2018-12-25T01:55:18.236Z,1.60
2018-12-25T01:57:47.924Z,1.73
2018-12-25T02:00:17.499Z,1.62
2018-12-25T02:02:48.013Z,1.50
2018-12-25T02:05:36.876Z,2.17
2018-12-25T02:08:06.454Z,1.10
2018-12-25T02:13:43.860Z,1.30
2018-12-25T02:16:14.024Z,1.37
2018-12-25T02:18:43.836Z,1.20
2018-12-25T02:24:26.085Z,1.47
2018-12-25T02:26:55.599Z,1.50
2018-12-25T02:29:44.895Z,1.47
2018-12-25T02:35:04.560Z,1.20
2018-12-25T02:37:34.367Z,1.40
2018-12-25T02:40:04.222Z,1.87
2018-12-25T02:42:33.970Z,1.90
2018-12-25T02:48:05.542Z,1.73
2018-12-25T02:53:23.907Z,1.83
2018-12-25T02:55:53.673Z,1.30
2018-12-25T02:58:23.835Z,1.20
2018-12-25T03:00:53.782Z,1.50
2018-12-25T03:03:23.556Z,1.70
2018-12-25T03:05:53.055Z,1.10
2018-12-25T03:11:17.536Z,1.83
2018-12-25T03:13:47.403Z,1.60
2018-12-25T03:16:17.167Z,1.15
2018-12-25T03:18:46.931Z,1.45
2018-12-25T03:21:16.835Z,1.67
2018-12-25T03:24:05.622Z,1.50
2018-12-25T03:26:53.467Z,1.80
2018-12-25T03:29:23.242Z,1.87
2018-12-25T03:31:52.740Z,1.70
2018-12-25T03:37:03.699Z,1.67
2018-12-25T03:39:33.286Z,1.63
2018-12-25T03:45:04.852Z,1.40
2018-12-25T03:47:34.624Z,1.97
2018-12-25T03:50:27.542Z,1.67
2018-12-25T03:52:57.114Z,1.60
2018-12-25T03:55:26.896Z,1.80
2018-12-25T03:57:56.383Z,1.30
2018-12-25T04:00:26.012Z,1.40
2018-12-25T04:02:57.659Z,1.63
2018-12-25T04:05:46.456Z,1.20
2018-12-25T04:08:16.056Z,1.40
2018-12-25T04:10:45.821Z,1.40
2018-12-25T04:16:04.411Z,1.50
2018-12-25T04:18:55.856Z,1.27
2018-12-25T04:21:44.956Z,1.47
2018-12-25T04:24:15.026Z,1.60
2018-12-25T04:26:45.306Z,1.85
2018-12-25T04:29:15.583Z,1.43
2018-12-25T04:31:45.128Z,1.63
2018-12-25T04:34:15.055Z,1.60
2018-12-25T04:36:44.896Z,1.90
2018-12-25T04:39:33.419Z,1.30
2018-12-25T04:42:03.463Z,1.63
2018-12-25T04:44:33.197Z,1.57
2018-12-25T04:47:22.151Z,1.43
2018-12-25T04:50:34.715Z,1.50
2018-12-25T04:53:04.262Z,1.47
2018-12-25T04:55:33.996Z,1.07
2018-12-25T05:00:59.695Z,1.73
2018-12-25T05:03:29.229Z,1.23
2018-12-25T05:09:10.879Z,1.05
2018-12-25T05:11:41.472Z,1.30
2018-12-25T05:14:11.283Z,1.10
2018-12-25T05:16:40.875Z,1.20
2018-12-25T05:21:52.781Z,1.50
2018-12-25T05:27:30.994Z,1.45
2018-12-25T05:30:01.032Z,0.90
2018-12-25T05:32:31.379Z,1.30
2018-12-25T05:35:00.864Z,1.30
2018-12-25T05:37:30.680Z,1.03
2018-12-25T05:40:00.603Z,1.33
2018-12-25T05:42:49.398Z,0.90
2018-12-25T05:48:19.387Z,1.20
2018-12-25T05:51:01.067Z,0.90
2018-12-25T05:53:30.962Z,1.17
2018-12-25T05:56:01.093Z,1.30
2018-12-25T05:58:30.831Z,1.50
2018-12-25T06:01:00.362Z,1.23
2018-12-25T06:03:49.731Z,1.23
2018-12-25T06:06:19.625Z,1.15
2018-12-25T06:09:09.230Z,1.40
2018-12-25T06:11:57.954Z,1.37
2018-12-25T06:14:27.953Z,1.60
2018-12-25T06:16:57.683Z,1.53
2018-12-25T06:19:27.487Z,1.45
2018-12-25T06:21:57.613Z,1.33
2018-12-25T06:24:28.237Z,1.60
2018-12-25T06:35:13.922Z,0.90
2018-12-25T06:37:43.946Z,1.47
2018-12-25T06:40:13.696Z,1.43
2018-12-25T06:42:43.478Z,1.77
2018-12-25T06:45:32.606Z,1.57
2018-12-25T06:48:02.596Z,1.57
2018-12-25T06:53:27.491Z,1.50
2018-12-25T06:55:57.099Z,2.17
2018-12-25T06:58:26.930Z,1.80
2018-12-25T07:00:56.432Z,1.80
2018-12-25T07:06:06.961Z,1.80
2018-12-25T07:08:36.445Z,2.20
2018-12-25T07:11:25.561Z,2.10
2018-12-25T07:13:55.129Z,1.67
2018-12-25T07:16:24.905Z,2.10
2018-12-25T07:18:54.716Z,2.27
2018-12-25T07:21:24.264Z,1.90
2018-12-25T07:23:53.931Z,1.80
2018-12-25T07:29:18.633Z,1.57
2018-12-25T07:31:48.378Z,2.00
2018-12-25T07:34:18.116Z,2.77
2018-12-25T07:39:42.379Z,2.23
2018-12-25T07:42:12.206Z,1.90
2018-12-25T07:44:41.999Z,2.23
2018-12-25T07:49:52.483Z,2.20
2018-12-25T07:55:04.083Z,2.50
2018-12-25T07:57:33.883Z,2.17
2018-12-25T08:00:03.418Z,2.07
2018-12-25T08:05:22.650Z,2.37
2018-12-25T08:08:04.599Z,2.37
2018-12-25T08:10:34.791Z,3.23
2018-12-25T08:13:04.288Z,2.47
2018-12-25T08:15:52.954Z,2.47
2018-12-25T08:23:52.069Z,2.33
2018-12-25T08:26:22.506Z,2.33
2018-12-25T08:28:52.744Z,2.57
2018-12-25T08:31:22.270Z,2.58
2018-12-25T08:34:11.660Z,2.50
2018-12-25T08:36:41.177Z,2.70
2018-12-25T08:39:11.343Z,2.40
2018-12-25T08:41:41.545Z,1.90
2018-12-25T08:44:11.577Z,2.53
2018-12-25T08:47:02.511Z,2.30
2018-12-25T08:49:37.814Z,2.33
2018-12-25T08:52:27.317Z,2.10
2018-12-25T08:54:56.942Z,2.52
2018-12-25T08:57:27.026Z,2.00
2018-12-25T08:59:56.593Z,2.27
2018-12-25T09:02:26.117Z,2.20
2018-12-25T09:04:56.623Z,2.27
2018-12-25T09:07:26.145Z,1.90
2018-12-25T09:09:56.186Z,2.47
2018-12-25T09:12:31.350Z,2.60
2018-12-25T09:15:00.906Z,2.50
2018-12-25T09:17:30.660Z,2.20
2018-12-25T09:20:00.971Z,3.00
2018-12-25T09:22:30.827Z,1.92
2018-12-25T09:25:00.393Z,2.10
2018-12-25T09:27:49.505Z,2.10
2018-12-25T09:30:19.011Z,2.95
2018-12-25T09:32:48.638Z,2.53
2018-12-25T09:35:18.568Z,2.13
2018-12-25T09:38:07.270Z,2.30
2018-12-25T09:40:36.769Z,1.93
2018-12-25T09:43:25.655Z,2.08
2018-12-25T09:45:55.226Z,2.22
2018-12-25T09:48:25.024Z,2.00
2018-12-25T09:50:55.156Z,1.80
2018-12-25T09:53:25.263Z,2.03
2018-12-25T09:56:18.148Z,1.80
2018-12-25T09:58:48.505Z,2.27
2018-12-25T10:01:18.003Z,1.90
2018-12-25T10:03:48.208Z,2.00
2018-12-25T10:06:17.742Z,2.37
2018-12-25T10:08:47.526Z,1.80
2018-12-25T10:11:17.328Z,2.07
2018-12-25T10:16:53.606Z,1.80
2018-12-25T10:19:23.166Z,1.50
2018-12-25T10:22:12.286Z,1.62
2018-12-25T10:30:25.476Z,2.02
2018-12-25T10:33:14.522Z,1.80
2018-12-25T10:35:44.703Z,2.20
2018-12-25T10:38:20.317Z,1.30
2018-12-25T10:40:50.364Z,1.37
2018-12-25T10:46:01.652Z,0.97
2018-12-25T10:48:31.411Z,1.10
2018-12-25T10:51:20.476Z,1.80
2018-12-25T10:53:50.599Z,1.73
2018-12-25T10:56:20.161Z,1.20
2018-12-25T10:58:49.714Z,1.60
2018-12-25T11:01:23.371Z,1.10
2018-12-25T11:03:53.254Z,1.27
2018-12-25T11:06:53.495Z,1.27
2018-12-25T11:09:42.285Z,1.27
2018-12-25T11:12:12.225Z,1.23
2018-12-25T11:14:41.737Z,1.10
2018-12-25T11:17:11.316Z,1.40
2018-12-25T11:19:41.197Z,1.10
2018-12-25T11:22:10.775Z,1.20
2018-12-25T11:24:40.743Z,0.97
2018-12-25T11:30:05.259Z,1.82
2018-12-25T11:32:35.015Z,1.23
2018-12-25T11:40:48.500Z,1.27
2018-12-25T11:43:18.135Z,1.60
2018-12-25T11:45:47.939Z,1.07
2018-12-25T11:48:18.005Z,1.47
2018-12-25T11:53:56.071Z,1.00
2018-12-25T11:56:26.376Z,1.25
2018-12-25T11:58:56.234Z,1.20
2018-12-25T12:01:25.858Z,1.47
2018-12-25T12:03:55.358Z,1.00
2018-12-25T12:06:25.445Z,1.47
2018-12-25T12:08:55.042Z,1.80
2018-12-25T12:11:25.328Z,1.67
2018-12-25T12:14:14.208Z,1.30
2018-12-25T12:16:43.764Z,1.50
2018-12-25T12:19:13.324Z,1.30
2018-12-25T12:21:42.864Z,1.40
2018-12-25T12:24:31.912Z,1.70
2018-12-25T12:27:01.955Z,1.57
2018-12-25T12:29:31.547Z,1.30
2018-12-25T12:32:01.300Z,1.00
2018-12-25T12:40:14.805Z,1.53
2018-12-25T12:42:44.836Z,0.97
2018-12-25T12:45:14.594Z,1.10
2018-12-25T12:47:44.595Z,1.00
2018-12-25T12:50:14.338Z,1.10
2018-12-25T12:52:45.700Z,1.00
2018-12-25T12:55:20.204Z,0.80
2018-12-25T12:57:49.982Z,1.10
2018-12-25T13:00:19.834Z,1.03
2018-12-25T13:08:29.901Z,0.87
2018-12-25T13:10:59.532Z,1.07
2018-12-25T13:13:29.284Z,0.80
2018-12-25T13:15:59.239Z,1.02
2018-12-25T13:18:29.272Z,1.10
2018-12-25T13:20:58.830Z,0.60
2018-12-25T13:23:28.659Z,1.20
2018-12-25T13:26:10.799Z,0.80
2018-12-25T13:28:40.673Z,0.80
2018-12-25T13:34:02.654Z,0.90
2018-12-25T13:36:32.503Z,0.90
2018-12-25T13:39:02.521Z,0.80
2018-12-25T13:41:32.584Z,0.73
2018-12-25T13:44:02.274Z,1.17
2018-12-25T13:49:14.086Z,0.70
2018-12-25T13:51:43.952Z,0.80
2018-12-25T13:54:14.153Z,1.17
2018-12-25T13:56:43.697Z,0.63
2018-12-25T13:59:32.291Z,0.80
2018-12-25T14:02:01.853Z,0.63
2018-12-25T14:04:31.703Z,0.63
2018-12-25T14:07:01.637Z,0.70
2018-12-25T14:12:40.880Z,1.10
2018-12-25T14:15:29.648Z,1.50
2018-12-25T14:17:59.205Z,0.77
2018-12-25T14:26:12.846Z,0.90
2018-12-25T14:28:42.644Z,0.80
2018-12-25T14:31:12.152Z,0.97
2018-12-25T14:36:36.127Z,1.30
2018-12-25T14:39:07.550Z,0.50
2018-12-25T14:41:37.348Z,0.47
2018-12-25T14:44:08.289Z,0.80
2018-12-25T14:46:38.043Z,0.80
2018-12-25T14:51:49.241Z,0.90
2018-12-25T14:54:38.361Z,0.80
2018-12-25T14:57:07.844Z,0.65
2018-12-25T14:59:37.718Z,0.60
2018-12-25T15:02:07.307Z,0.75
2018-12-25T15:12:54.872Z,0.90
2018-12-25T15:15:24.727Z,0.90
2018-12-25T15:21:19.645Z,0.70
2018-12-25T15:23:49.207Z,1.47
2018-12-25T15:26:18.958Z,1.62
2018-12-25T15:29:33.913Z,0.80
2018-12-25T15:32:03.452Z,1.60
2018-12-25T15:34:33.554Z,1.70
2018-12-25T15:37:03.367Z,2.50
2018-12-25T15:39:33.279Z,1.10
2018-12-25T15:42:22.063Z,1.43
2018-12-25T15:44:52.151Z,1.97
2018-12-25T15:47:21.757Z,1.47
2018-12-25T15:52:33.187Z,1.27
2018-12-25T15:55:03.065Z,0.80
2018-12-25T15:57:33.352Z,1.15
2018-12-25T16:00:03.029Z,1.87
2018-12-25T16:02:33.771Z,1.00
2018-12-25T16:05:03.835Z,1.10
2018-12-25T16:07:33.465Z,1.52
2018-12-25T16:10:03.951Z,1.10
2018-12-25T16:12:33.808Z,1.30
2018-12-25T16:15:03.688Z,1.20
2018-12-25T16:17:33.746Z,0.90
2018-12-25T16:20:03.844Z,1.00
2018-12-25T16:22:33.683Z,1.50
2018-12-25T16:25:03.377Z,0.87
2018-12-25T16:27:33.148Z,1.27
2018-12-25T16:30:02.730Z,1.40
2018-12-25T16:32:33.049Z,1.23
2018-12-25T16:35:02.918Z,1.10
2018-12-25T16:37:32.942Z,1.10
2018-12-25T16:40:02.814Z,1.13
2018-12-25T16:42:32.315Z,1.10
2018-12-25T16:45:02.111Z,1.20
2018-12-25T16:47:31.813Z,1.20
2018-12-25T16:50:01.646Z,0.80
2018-12-25T16:52:31.216Z,1.00
2018-12-25T16:55:01.117Z,1.00
2018-12-25T16:57:30.732Z,1.43
2018-12-25T17:00:00.332Z,1.10
2018-12-25T17:02:30.139Z,1.13
2018-12-25T17:04:59.911Z,1.10
2018-12-25T17:07:29.938Z,0.82
2018-12-25T17:09:59.988Z,0.88
2018-12-25T17:12:29.809Z,0.98
2018-12-25T17:14:59.287Z,1.10
2018-12-25T17:17:29.221Z,0.90
2018-12-25T17:19:58.746Z,1.17
2018-12-25T17:22:28.270Z,0.77
2018-12-25T17:24:59.665Z,1.30
2018-12-25T17:27:29.562Z,1.57
2018-12-25T17:29:59.428Z,1.33
2018-12-25T17:32:28.957Z,1.20
2018-12-25T17:34:58.724Z,1.37
2018-12-25T17:37:29.575Z,1.03
2018-12-25T17:39:59.118Z,1.73
2018-12-25T17:42:28.666Z,1.17
2018-12-25T17:44:58.463Z,1.43
2018-12-25T17:47:29.319Z,1.47
2018-12-25T17:49:59.040Z,1.43
2018-12-25T17:52:29.623Z,1.53
2018-12-25T17:54:59.111Z,1.20
2018-12-25T17:57:28.904Z,1.23
2018-12-25T17:59:58.437Z,1.60
2018-12-25T18:02:27.927Z,1.30
2018-12-25T18:04:57.879Z,1.27
2018-12-25T18:07:28.164Z,1.10
2018-12-25T18:09:57.669Z,1.70
2018-12-25T18:12:27.303Z,1.50
2018-12-25T18:14:57.058Z,1.80
2018-12-25T18:17:26.604Z,1.25
2018-12-25T18:19:56.634Z,1.40
2018-12-25T18:22:26.595Z,1.20
2018-12-25T18:24:56.327Z,2.20
2018-12-25T18:27:26.147Z,1.60
2018-12-25T18:29:55.897Z,1.50
2018-12-25T18:32:25.415Z,2.00
2018-12-25T18:34:54.886Z,1.57
2018-12-25T18:37:25.384Z,1.93
2018-12-25T18:39:56.502Z,2.00
2018-12-25T18:42:26.649Z,2.47
2018-12-25T18:44:56.740Z,2.60
2018-12-25T18:47:27.525Z,2.30
2018-12-25T18:49:57.067Z,2.33
2018-12-25T18:52:27.231Z,2.42
2018-12-25T18:54:56.754Z,2.47
2018-12-25T18:57:26.323Z,2.93
2018-12-25T18:59:55.863Z,2.83
2018-12-25T19:02:25.741Z,2.90
2018-12-25T19:04:55.467Z,3.43
2018-12-25T19:07:26.260Z,2.70
2018-12-25T19:09:55.839Z,3.23
2018-12-25T19:12:25.569Z,4.20
2018-12-25T19:15:22.171Z,3.35
2018-12-25T19:17:53.621Z,3.20
2018-12-25T19:20:23.611Z,2.70
2018-12-25T19:22:53.179Z,3.17
2018-12-25T19:25:23.265Z,3.33
2018-12-25T19:27:53.029Z,2.87
2018-12-25T19:30:24.153Z,3.23
2018-12-25T19:32:53.924Z,3.33
2018-12-25T19:35:23.862Z,4.20
2018-12-25T19:37:53.657Z,3.10
2018-12-25T19:40:24.284Z,3.77
2018-12-25T19:42:53.905Z,3.43
2018-12-25T19:45:23.815Z,2.90
2018-12-25T19:47:53.678Z,3.90
2018-12-25T19:50:24.436Z,3.60
2018-12-25T19:52:55.704Z,3.65
2018-12-25T19:55:25.637Z,3.20
2018-12-25T19:57:55.461Z,3.13
2018-12-25T20:00:26.154Z,3.27
2018-12-25T20:03:08.313Z,3.77
2018-12-25T20:06:02.954Z,3.20
2018-12-25T20:09:19.746Z,3.97
2018-12-25T20:12:30.586Z,3.63
2018-12-25T20:15:18.055Z,4.00
2018-12-25T20:18:28.181Z,4.13
2018-12-25T20:21:19.701Z,4.10
2018-12-25T20:24:26.760Z,4.03
2018-12-25T20:27:34.229Z,3.90
2018-12-25T20:30:43.403Z,3.40
2018-12-25T20:33:59.821Z,4.70
2018-12-25T20:36:58.791Z,3.93
2018-12-25T20:40:04.552Z,4.23
2018-12-25T20:43:04.145Z,4.60
2018-12-25T20:46:12.493Z,4.60
2018-12-25T20:49:15.389Z,4.57
2018-12-25T20:52:04.098Z,4.80
2018-12-25T20:55:01.813Z,6.03
2018-12-25T20:58:08.495Z,6.10
2018-12-25T21:01:06.711Z,6.30
2018-12-25T21:04:28.226Z,6.97
2018-12-25T21:07:39.101Z,8.28
2018-12-25T21:11:14.645Z,8.60
2018-12-25T21:14:20.272Z,8.40
2018-12-25T21:17:32.472Z,8.83
2018-12-25T21:20:33.945Z,9.93
2018-12-25T21:23:39.517Z,10.00
2018-12-25T21:26:44.966Z,11.47
2018-12-25T21:29:14.968Z,10.33
2018-12-25T21:31:44.899Z,11.33
2018-12-25T21:34:14.603Z,11.70
2018-12-25T21:36:49.595Z,12.33
2018-12-25T21:39:22.312Z,13.23
2018-12-25T21:41:52.216Z,13.10
2018-12-25T21:44:21.772Z,13.43
2018-12-25T21:46:51.435Z,13.10
2018-12-25T21:49:21.006Z,13.23
2018-12-25T21:51:51.075Z,14.60
2018-12-25T21:54:21.016Z,14.10
2018-12-25T21:56:50.922Z,15.20
2018-12-25T21:59:20.730Z,15.70
2018-12-25T22:01:50.592Z,14.73
2018-12-25T22:04:20.852Z,14.97
2018-12-25T22:06:50.676Z,14.80
2018-12-25T22:09:20.473Z,15.23
2018-12-25T22:11:49.993Z,15.85
2018-12-25T22:14:19.551Z,15.98
2018-12-25T22:16:49.043Z,17.30
2018-12-25T22:19:18.558Z,15.20
2018-12-25T22:21:48.118Z,16.07
2018-12-25T22:24:18.068Z,17.17
2018-12-25T22:26:47.606Z,16.43
2018-12-25T22:29:17.134Z,15.90
2018-12-25T22:31:46.625Z,17.60
2018-12-25T22:34:16.703Z,15.30
2018-12-25T22:36:46.502Z,16.13
2018-12-25T22:39:16.240Z,15.30
2018-12-25T22:41:45.758Z,17.63
2018-12-25T22:44:15.817Z,16.87
2018-12-25T22:46:45.583Z,17.60
2018-12-25T22:49:15.663Z,16.97
2018-12-25T22:51:45.913Z,17.73
2018-12-25T22:54:15.366Z,17.13
2018-12-25T22:56:45.383Z,16.87
2018-12-25T22:59:14.904Z,18.03
2018-12-25T23:01:44.651Z,17.80
2018-12-25T23:04:14.454Z,18.45
2018-12-25T23:06:43.967Z,19.77
2018-12-25T23:09:13.749Z,19.80
2018-12-25T23:11:44.228Z,19.87
2018-12-25T23:14:14.073Z,19.93
2018-12-25T23:16:43.747Z,20.17
2018-12-25T23:19:13.992Z,20.03
2018-12-25T23:21:44.327Z,20.63
2018-12-25T23:24:15.354Z,20.37
2018-12-25T23:26:45.349Z,20.53
2018-12-25T23:29:14.862Z,19.43
2018-12-25T23:31:44.520Z,19.87
2018-12-25T23:34:14.143Z,20.47
2018-12-25T23:36:43.809Z,19.60
2018-12-25T23:39:14.139Z,19.00
2018-12-25T23:41:43.849Z,20.05
2018-12-25T23:44:13.933Z,18.10
2018-12-25T23:46:43.928Z,18.40
2018-12-25T23:49:14.192Z,19.73
2018-12-25T23:51:44.641Z,18.73
2018-12-25T23:54:14.572Z,17.37
2018-12-25T23:56:44.044Z,17.30
2018-12-25T23:59:14.312Z,18.27
